createdAt,value
2023-05-14T00:11:56.657Z,86.8
2023-05-14T00:31:56.657Z,87.1
2023-05-14T00:51:56.668Z,87.9
2023-05-14T01:11:56.655Z,88.0
2023-05-14T01:31:56.660Z,88.8
2023-05-14T01:51:56.643Z,88.6
2023-05-14T02:11:56.571Z,87.9
2023-05-14T02:31:56.753Z,87.5
2023-05-14T02:51:56.569Z,87.0
2023-05-14T03:11:56.563Z,86.9
2023-05-14T03:31:56.599Z,87.3
2023-05-14T03:51:56.576Z,86.9
2023-05-14T04:11:56.571Z,87.4
2023-05-14T04:31:56.470Z,86.8
2023-05-14T04:51:56.483Z,86.9
2023-05-14T05:11:56.462Z,88.3
2023-05-14T05:31:56.465Z,88.7
2023-05-14T05:51:56.459Z,88.6
2023-05-14T06:11:56.466Z,88.7
2023-05-14T06:31:56.466Z,88.6
2023-05-14T06:51:56.361Z,88.2
2023-05-14T07:11:56.364Z,87.5
2023-05-14T07:31:56.370Z,86.7
2023-05-14T07:51:56.369Z,86.4
2023-05-14T08:11:56.375Z,85.6
2023-05-14T08:31:56.380Z,84.0
2023-05-14T08:51:56.299Z,83.2
2023-05-14T09:11:56.285Z,81.9
2023-05-14T09:31:56.273Z,81.8
2023-05-14T09:51:56.390Z,80.4
2023-05-14T10:11:56.309Z,79.0
2023-05-14T10:31:56.169Z,78.1
2023-05-14T10:51:56.167Z,77.3
2023-05-14T11:11:56.173Z,77.2
2023-05-14T11:31:56.185Z,74.6
2023-05-14T11:51:56.187Z,72.7
2023-05-14T12:11:56.199Z,70.8
2023-05-14T12:31:56.090Z,67.8
2023-05-14T12:51:56.097Z,65.4
2023-05-14T13:11:56.003Z,66.7
2023-05-14T13:31:56.010Z,62.4
2023-05-14T13:51:56.210Z,63.0
2023-05-14T14:11:56.036Z,61.6
2023-05-14T14:31:56.046Z,61.7
2023-05-14T14:51:55.951Z,62.5
2023-05-14T15:11:55.894Z,61.8
2023-05-14T15:31:55.883Z,68.5
2023-05-14T15:51:56.020Z,73.9
2023-05-14T16:11:55.807Z,81.2
2023-05-14T16:31:55.854Z,83.9
2023-05-14T16:51:55.818Z,84.8
2023-05-14T17:11:55.843Z,82.2
2023-05-14T17:31:55.724Z,83.1
2023-05-14T17:51:55.787Z,84.2
2023-05-14T18:11:55.745Z,85.6
2023-05-14T18:31:55.829Z,86.0
2023-05-14T18:51:55.810Z,87.0
2023-05-14T19:11:55.661Z,86.6
2023-05-14T19:31:55.768Z,87.7
2023-05-14T19:51:55.827Z,88.6
2023-05-14T20:11:55.660Z,88.5
2023-05-14T20:31:55.804Z,88.1
2023-05-14T20:51:55.643Z,88.4
2023-05-14T21:11:55.785Z,88.1
2023-05-14T21:31:55.641Z,88.8
2023-05-14T21:51:55.582Z,88.9
2023-05-14T22:11:55.526Z,89.1
2023-05-14T22:31:55.650Z,88.9
2023-05-14T22:51:55.532Z,89.0
2023-05-14T23:11:55.538Z,88.7
2023-05-14T23:31:55.602Z,88.9
2023-05-14T23:51:55.416Z,89.2
